sensor_id;sensor_type;location;lat;lon;timestamp;P1;durP1;ratioP1;P2;durP2;ratioP2
37131;SDS011;23035;50.032;21.978;2023-09-07T00:03:48;22.90;;;13.80;;
37131;SDS011;23035;50.032;21.978;2023-09-07T00:08:54;20.30;;;11.95;;
37131;SDS011;23035;50.032;21.978;2023-09-07T00:13:58;30.85;;;13.35;;
37131;SDS011;23035;50.032;21.978;2023-09-07T00:19:02;23.65;;;13.27;;
37131;SDS011;23035;50.032;21.978;2023-09-07T00:24:07;26.80;;;13.02;;
37131;SDS011;23035;50.032;21.978;2023-09-07T00:29:12;24.75;;;12.95;;
37131;SDS011;23035;50.032;21.978;2023-09-07T00:34:16;18.73;;;11.55;;
37131;SDS011;23035;50.032;21.978;2023-09-07T00:39:22;25.27;;;13.43;;
37131;SDS011;23035;50.032;21.978;2023-09-07T00:44:26;24.20;;;13.07;;
37131;SDS011;23035;50.032;21.978;2023-09-07T00:49:30;20.40;;;12.48;;
37131;SDS011;23035;50.032;21.978;2023-09-07T00:54:36;20.88;;;12.00;;
37131;SDS011;23035;50.032;21.978;2023-09-07T00:59:40;25.20;;;11.90;;
37131;SDS011;23035;50.032;21.978;2023-09-07T01:04:45;20.98;;;11.43;;
37131;SDS011;23035;50.032;21.978;2023-09-07T01:09:51;23.40;;;11.48;;
37131;SDS011;23035;50.032;21.978;2023-09-07T01:14:57;23.70;;;11.82;;
37131;SDS011;23035;50.032;21.978;2023-09-07T01:20:02;20.48;;;11.40;;
37131;SDS011;23035;50.032;21.978;2023-09-07T01:25:13;19.25;;;11.77;;
37131;SDS011;23035;50.032;21.978;2023-09-07T01:35:21;18.65;;;11.05;;
37131;SDS011;23035;50.032;21.978;2023-09-07T01:40:28;20.00;;;11.10;;
37131;SDS011;23035;50.032;21.978;2023-09-07T01:45:32;18.55;;;10.00;;
37131;SDS011;23035;50.032;21.978;2023-09-07T01:50:36;18.17;;;10.88;;
37131;SDS011;23035;50.032;21.978;2023-09-07T01:55:42;18.08;;;9.05;;
37131;SDS011;23035;50.032;21.978;2023-09-07T02:00:46;16.50;;;9.40;;
37131;SDS011;23035;50.032;21.978;2023-09-07T02:05:50;20.38;;;10.13;;
37131;SDS011;23035;50.032;21.978;2023-09-07T02:10:55;19.00;;;10.40;;
37131;SDS011;23035;50.032;21.978;2023-09-07T02:16:02;18.88;;;11.00;;
37131;SDS011;23035;50.032;21.978;2023-09-07T02:21:09;22.13;;;10.13;;
37131;SDS011;23035;50.032;21.978;2023-09-07T02:26:14;18.33;;;10.50;;
37131;SDS011;23035;50.032;21.978;2023-09-07T02:31:18;17.92;;;10.55;;
37131;SDS011;23035;50.032;21.978;2023-09-07T02:36:24;18.80;;;10.20;;
37131;SDS011;23035;50.032;21.978;2023-09-07T02:41:30;15.70;;;9.38;;
37131;SDS011;23035;50.032;21.978;2023-09-07T02:46:34;17.73;;;9.57;;
37131;SDS011;23035;50.032;21.978;2023-09-07T02:51:39;19.33;;;9.93;;
37131;SDS011;23035;50.032;21.978;2023-09-07T02:56:44;14.98;;;9.38;;
37131;SDS011;23035;50.032;21.978;2023-09-07T03:01:48;15.68;;;9.00;;
37131;SDS011;23035;50.032;21.978;2023-09-07T03:06:53;18.97;;;9.13;;
37131;SDS011;23035;50.032;21.978;2023-09-07T03:11:59;18.63;;;10.05;;
37131;SDS011;23035;50.032;21.978;2023-09-07T03:17:04;18.17;;;9.70;;
37131;SDS011;23035;50.032;21.978;2023-09-07T03:22:09;21.45;;;9.50;;
37131;SDS011;23035;50.032;21.978;2023-09-07T03:27:15;17.30;;;9.57;;
37131;SDS011;23035;50.032;21.978;2023-09-07T03:32:19;17.02;;;9.68;;
37131;SDS011;23035;50.032;21.978;2023-09-07T03:37:23;18.48;;;9.55;;
37131;SDS011;23035;50.032;21.978;2023-09-07T03:42:28;20.30;;;10.35;;
37131;SDS011;23035;50.032;21.978;2023-09-07T03:47:36;17.52;;;10.27;;
37131;SDS011;23035;50.032;21.978;2023-09-07T03:57:46;14.32;;;9.25;;
37131;SDS011;23035;50.032;21.978;2023-09-07T04:02:50;19.88;;;9.15;;
37131;SDS011;23035;50.032;21.978;2023-09-07T04:07:57;15.95;;;8.77;;
37131;SDS011;23035;50.032;21.978;2023-09-07T04:13:03;15.70;;;9.10;;
37131;SDS011;23035;50.032;21.978;2023-09-07T04:18:07;18.20;;;9.85;;
37131;SDS011;23035;50.032;21.978;2023-09-07T04:23:11;18.65;;;9.88;;
37131;SDS011;23035;50.032;21.978;2023-09-07T04:28:17;18.77;;;9.77;;
37131;SDS011;23035;50.032;21.978;2023-09-07T04:33:21;25.00;;;11.18;;
37131;SDS011;23035;50.032;21.978;2023-09-07T04:38:29;20.25;;;10.88;;
37131;SDS011;23035;50.032;21.978;2023-09-07T04:43:38;18.85;;;10.00;;
37131;SDS011;23035;50.032;21.978;2023-09-07T04:48:48;20.30;;;9.48;;
37131;SDS011;23035;50.032;21.978;2023-09-07T04:53:53;17.92;;;9.00;;
37131;SDS011;23035;50.032;21.978;2023-09-07T04:59:03;14.68;;;8.55;;
37131;SDS011;23035;50.032;21.978;2023-09-07T05:04:10;15.90;;;8.90;;
37131;SDS011;23035;50.032;21.978;2023-09-07T05:09:17;14.98;;;9.68;;
37131;SDS011;23035;50.032;21.978;2023-09-07T05:14:27;19.48;;;10.75;;
37131;SDS011;23035;50.032;21.978;2023-09-07T05:19:35;19.08;;;10.25;;
37131;SDS011;23035;50.032;21.978;2023-09-07T05:24:39;28.80;;;10.95;;
37131;SDS011;23035;50.032;21.978;2023-09-07T05:29:45;20.00;;;10.53;;
37131;SDS011;23035;50.032;21.978;2023-09-07T05:34:49;20.00;;;9.40;;
37131;SDS011;23035;50.032;21.978;2023-09-07T05:39:53;23.98;;;10.27;;
37131;SDS011;23035;50.032;21.978;2023-09-07T05:44:59;21.27;;;9.93;;
37131;SDS011;23035;50.032;21.978;2023-09-07T05:50:04;24.73;;;10.55;;
37131;SDS011;23035;50.032;21.978;2023-09-07T05:55:08;20.00;;;9.20;;
37131;SDS011;23035;50.032;21.978;2023-09-07T06:00:14;23.33;;;9.98;;
37131;SDS011;23035;50.032;21.978;2023-09-07T06:05:20;16.42;;;9.40;;
37131;SDS011;23035;50.032;21.978;2023-09-07T06:10:27;22.48;;;8.95;;
37131;SDS011;23035;50.032;21.978;2023-09-07T06:15:33;20.05;;;9.88;;
37131;SDS011;23035;50.032;21.978;2023-09-07T06:20:38;23.98;;;9.82;;
37131;SDS011;23035;50.032;21.978;2023-09-07T06:25:42;20.42;;;9.10;;
37131;SDS011;23035;50.032;21.978;2023-09-07T06:30:48;15.95;;;8.50;;
37131;SDS011;23035;50.032;21.978;2023-09-07T06:35:54;19.05;;;9.20;;
37131;SDS011;23035;50.032;21.978;2023-09-07T06:40:59;22.10;;;9.00;;
37131;SDS011;23035;50.032;21.978;2023-09-07T06:46:06;18.73;;;8.63;;
37131;SDS011;23035;50.032;21.978;2023-09-07T06:51:12;26.77;;;10.65;;
37131;SDS011;23035;50.032;21.978;2023-09-07T06:56:16;24.55;;;10.10;;
37131;SDS011;23035;50.032;21.978;2023-09-07T07:01:22;25.45;;;9.35;;
37131;SDS011;23035;50.032;21.978;2023-09-07T07:06:26;19.45;;;9.68;;
37131;SDS011;23035;50.032;21.978;2023-09-07T07:11:30;25.40;;;11.82;;
37131;SDS011;23035;50.032;21.978;2023-09-07T07:16:36;24.70;;;11.65;;
37131;SDS011;23035;50.032;21.978;2023-09-07T07:21:40;24.00;;;12.40;;
37131;SDS011;23035;50.032;21.978;2023-09-07T07:31:52;20.52;;;11.57;;
37131;SDS011;23035;50.032;21.978;2023-09-07T07:36:56;23.48;;;11.95;;
37131;SDS011;23035;50.032;21.978;2023-09-07T07:42:00;18.65;;;11.27;;
37131;SDS011;23035;50.032;21.978;2023-09-07T07:47:07;12.05;;;8.40;;
37131;SDS011;23035;50.032;21.978;2023-09-07T07:52:12;16.58;;;9.07;;
37131;SDS011;23035;50.032;21.978;2023-09-07T07:57:16;22.10;;;8.70;;
37131;SDS011;23035;50.032;21.978;2023-09-07T08:02:22;23.50;;;14.57;;
37131;SDS011;23035;50.032;21.978;2023-09-07T08:07:26;16.52;;;8.73;;
37131;SDS011;23035;50.032;21.978;2023-09-07T08:12:31;15.80;;;10.67;;
37131;SDS011;23035;50.032;21.978;2023-09-07T08:17:37;17.33;;;12.25;;
37131;SDS011;23035;50.032;21.978;2023-09-07T08:22:42;19.30;;;10.05;;
37131;SDS011;23035;50.032;21.978;2023-09-07T08:27:47;15.43;;;9.48;;
37131;SDS011;23035;50.032;21.978;2023-09-07T08:32:53;18.45;;;11.90;;
37131;SDS011;23035;50.032;21.978;2023-09-07T08:37:58;19.48;;;8.05;;
37131;SDS011;23035;50.032;21.978;2023-09-07T08:43:04;19.63;;;8.55;;
37131;SDS011;23035;50.032;21.978;2023-09-07T08:48:11;17.17;;;8.75;;
37131;SDS011;23035;50.032;21.978;2023-09-07T08:53:18;15.88;;;8.85;;
37131;SDS011;23035;50.032;21.978;2023-09-07T08:58:23;14.23;;;6.75;;
37131;SDS011;23035;50.032;21.978;2023-09-07T09:03:29;19.27;;;8.90;;
37131;SDS011;23035;50.032;21.978;2023-09-07T09:08:41;32.10;;;12.73;;
37131;SDS011;23035;50.032;21.978;2023-09-07T09:13:46;12.27;;;7.45;;
37131;SDS011;23035;50.032;21.978;2023-09-07T09:23:57;13.63;;;7.63;;
37131;SDS011;23035;50.032;21.978;2023-09-07T09:29:02;10.68;;;5.95;;
37131;SDS011;23035;50.032;21.978;2023-09-07T09:34:08;9.20;;;5.77;;
37131;SDS011;23035;50.032;21.978;2023-09-07T09:39:21;6.00;;;4.40;;
37131;SDS011;23035;50.032;21.978;2023-09-07T09:44:26;9.38;;;4.72;;
37131;SDS011;23035;50.032;21.978;2023-09-07T09:49:34;10.23;;;4.28;;
37131;SDS011;23035;50.032;21.978;2023-09-07T09:54:39;11.82;;;6.80;;
37131;SDS011;23035;50.032;21.978;2023-09-07T09:59:44;11.10;;;6.10;;
37131;SDS011;23035;50.032;21.978;2023-09-07T10:04:51;7.83;;;5.07;;
37131;SDS011;23035;50.032;21.978;2023-09-07T10:09:56;11.00;;;5.30;;
37131;SDS011;23035;50.032;21.978;2023-09-07T10:15:00;6.70;;;4.70;;
37131;SDS011;23035;50.032;21.978;2023-09-07T10:20:08;8.00;;;4.80;;
37131;SDS011;23035;50.032;21.978;2023-09-07T10:25:20;9.30;;;5.10;;
37131;SDS011;23035;50.032;21.978;2023-09-07T10:30:25;10.88;;;6.45;;
37131;SDS011;23035;50.032;21.978;2023-09-07T10:35:30;8.48;;;5.28;;
37131;SDS011;23035;50.032;21.978;2023-09-07T10:40:40;7.20;;;5.25;;
37131;SDS011;23035;50.032;21.978;2023-09-07T10:45:47;10.80;;;5.35;;
37131;SDS011;23035;50.032;21.978;2023-09-07T10:50:54;7.82;;;4.82;;
37131;SDS011;23035;50.032;21.978;2023-09-07T10:55:59;8.77;;;5.10;;
37131;SDS011;23035;50.032;21.978;2023-09-07T11:01:06;7.85;;;5.68;;
37131;SDS011;23035;50.032;21.978;2023-09-07T11:06:13;7.72;;;5.38;;
37131;SDS011;23035;50.032;21.978;2023-09-07T11:11:21;8.75;;;5.10;;
37131;SDS011;23035;50.032;21.978;2023-09-07T11:21:32;8.07;;;5.07;;
37131;SDS011;23035;50.032;21.978;2023-09-07T11:26:42;10.70;;;5.38;;
37131;SDS011;23035;50.032;21.978;2023-09-07T11:31:46;9.55;;;5.78;;
37131;SDS011;23035;50.032;21.978;2023-09-07T11:36:52;8.07;;;5.50;;
37131;SDS011;23035;50.032;21.978;2023-09-07T11:41:56;10.52;;;7.82;;
37131;SDS011;23035;50.032;21.978;2023-09-07T11:47:00;7.68;;;5.93;;
37131;SDS011;23035;50.032;21.978;2023-09-07T11:52:08;8.63;;;5.93;;
37131;SDS011;23035;50.032;21.978;2023-09-07T11:57:13;7.50;;;5.28;;
37131;SDS011;23035;50.032;21.978;2023-09-07T12:02:18;7.80;;;5.65;;
37131;SDS011;23035;50.032;21.978;2023-09-07T12:07:25;9.82;;;5.90;;
37131;SDS011;23035;50.032;21.978;2023-09-07T12:12:29;10.82;;;6.18;;
37131;SDS011;23035;50.032;21.978;2023-09-07T12:17:36;7.90;;;6.55;;
37131;SDS011;23035;50.032;21.978;2023-09-07T12:22:43;9.10;;;5.93;;
37131;SDS011;23035;50.032;21.978;2023-09-07T12:27:47;8.43;;;5.30;;
37131;SDS011;23035;50.032;21.978;2023-09-07T12:32:56;8.15;;;5.38;;
37131;SDS011;23035;50.032;21.978;2023-09-07T12:38:01;7.00;;;4.85;;
37131;SDS011;23035;50.032;21.978;2023-09-07T12:43:06;6.95;;;5.75;;
37131;SDS011;23035;50.032;21.978;2023-09-07T12:48:10;5.72;;;5.13;;
37131;SDS011;23035;50.032;21.978;2023-09-07T12:53:15;8.38;;;5.40;;
37131;SDS011;23035;50.032;21.978;2023-09-07T12:58:20;8.30;;;4.65;;
37131;SDS011;23035;50.032;21.978;2023-09-07T13:03:24;6.45;;;4.82;;
37131;SDS011;23035;50.032;21.978;2023-09-07T13:08:30;7.45;;;5.25;;
37131;SDS011;23035;50.032;21.978;2023-09-07T13:13:36;6.00;;;4.85;;
37131;SDS011;23035;50.032;21.978;2023-09-07T13:18:40;6.78;;;4.60;;
37131;SDS011;23035;50.032;21.978;2023-09-07T13:23:46;8.13;;;5.95;;
37131;SDS011;23035;50.032;21.978;2023-09-07T13:28:50;16.10;;;8.65;;
37131;SDS011;23035;50.032;21.978;2023-09-07T13:33:54;9.77;;;5.90;;
37131;SDS011;23035;50.032;21.978;2023-09-07T13:38:59;7.88;;;5.30;;
37131;SDS011;23035;50.032;21.978;2023-09-07T13:44:06;7.90;;;5.10;;
37131;SDS011;23035;50.032;21.978;2023-09-07T13:49:10;9.82;;;5.25;;
37131;SDS011;23035;50.032;21.978;2023-09-07T13:59:20;6.68;;;5.55;;
37131;SDS011;23035;50.032;21.978;2023-09-07T14:04:24;9.77;;;5.47;;
37131;SDS011;23035;50.032;21.978;2023-09-07T14:09:29;9.82;;;4.80;;
37131;SDS011;23035;50.032;21.978;2023-09-07T14:14:33;6.85;;;5.13;;
37131;SDS011;23035;50.032;21.978;2023-09-07T14:19:37;7.45;;;5.43;;
37131;SDS011;23035;50.032;21.978;2023-09-07T14:24:43;8.57;;;5.50;;
37131;SDS011;23035;50.032;21.978;2023-09-07T14:29:47;8.65;;;5.55;;
37131;SDS011;23035;50.032;21.978;2023-09-07T14:34:51;14.18;;;6.75;;
37131;SDS011;23035;50.032;21.978;2023-09-07T14:39:56;11.38;;;6.57;;
37131;SDS011;23035;50.032;21.978;2023-09-07T14:45:02;10.10;;;7.68;;
37131;SDS011;23035;50.032;21.978;2023-09-07T14:50:07;10.20;;;6.45;;
37131;SDS011;23035;50.032;21.978;2023-09-07T14:55:13;13.85;;;6.95;;
37131;SDS011;23035;50.032;21.978;2023-09-07T15:00:18;10.95;;;6.50;;
37131;SDS011;23035;50.032;21.978;2023-09-07T15:05:22;8.98;;;6.25;;
37131;SDS011;23035;50.032;21.978;2023-09-07T15:10:27;11.02;;;6.95;;
37131;SDS011;23035;50.032;21.978;2023-09-07T15:15:33;9.48;;;6.55;;
37131;SDS011;23035;50.032;21.978;2023-09-07T15:20:39;9.60;;;7.63;;
37131;SDS011;23035;50.032;21.978;2023-09-07T15:25:45;10.77;;;7.07;;
37131;SDS011;23035;50.032;21.978;2023-09-07T15:30:49;12.18;;;7.78;;
37131;SDS011;23035;50.032;21.978;2023-09-07T15:35:53;12.23;;;7.80;;
37131;SDS011;23035;50.032;21.978;2023-09-07T15:40:58;15.07;;;8.30;;
37131;SDS011;23035;50.032;21.978;2023-09-07T15:46:07;10.52;;;7.95;;
37131;SDS011;23035;50.032;21.978;2023-09-07T15:51:13;11.85;;;8.55;;
37131;SDS011;23035;50.032;21.978;2023-09-07T15:56:18;15.20;;;8.75;;
37131;SDS011;23035;50.032;21.978;2023-09-07T16:01:23;13.30;;;8.15;;
37131;SDS011;23035;50.032;21.978;2023-09-07T16:06:27;13.27;;;9.15;;
37131;SDS011;23035;50.032;21.978;2023-09-07T16:11:33;14.82;;;7.93;;
37131;SDS011;23035;50.032;21.978;2023-09-07T16:16:37;10.07;;;7.00;;
37131;SDS011;23035;50.032;21.978;2023-09-07T16:21:41;11.55;;;8.07;;
37131;SDS011;23035;50.032;21.978;2023-09-07T16:26:46;12.25;;;7.85;;
37131;SDS011;23035;50.032;21.978;2023-09-07T16:31:50;11.35;;;8.57;;
37131;SDS011;23035;50.032;21.978;2023-09-07T16:36:55;15.95;;;7.60;;
37131;SDS011;23035;50.032;21.978;2023-09-07T16:42:00;15.67;;;9.00;;
37131;SDS011;23035;50.032;21.978;2023-09-07T16:47:04;11.75;;;8.10;;
37131;SDS011;23035;50.032;21.978;2023-09-07T16:52:08;14.35;;;7.47;;
37131;SDS011;23035;50.032;21.978;2023-09-07T16:57:14;14.68;;;9.02;;
37131;SDS011;23035;50.032;21.978;2023-09-07T17:02:18;16.98;;;9.93;;
37131;SDS011;23035;50.032;21.978;2023-09-07T17:07:22;20.77;;;12.10;;
37131;SDS011;23035;50.032;21.978;2023-09-07T17:12:27;18.47;;;10.43;;
37131;SDS011;23035;50.032;21.978;2023-09-07T17:17:31;23.30;;;11.13;;
37131;SDS011;23035;50.032;21.978;2023-09-07T17:27:42;17.95;;;11.05;;
37131;SDS011;23035;50.032;21.978;2023-09-07T17:32:47;20.90;;;12.15;;
37131;SDS011;23035;50.032;21.978;2023-09-07T17:37:51;26.88;;;15.05;;
37131;SDS011;23035;50.032;21.978;2023-09-07T17:42:57;33.30;;;15.45;;
37131;SDS011;23035;50.032;21.978;2023-09-07T17:48:01;31.88;;;17.48;;
37131;SDS011;23035;50.032;21.978;2023-09-07T17:53:05;37.72;;;20.83;;
37131;SDS011;23035;50.032;21.978;2023-09-07T17:58:11;53.38;;;24.33;;
37131;SDS011;23035;50.032;21.978;2023-09-07T18:03:15;38.42;;;19.63;;
37131;SDS011;23035;50.032;21.978;2023-09-07T18:08:20;42.53;;;21.87;;
37131;SDS011;23035;50.032;21.978;2023-09-07T18:13:25;43.58;;;20.77;;
37131;SDS011;23035;50.032;21.978;2023-09-07T18:18:30;40.80;;;21.02;;
37131;SDS011;23035;50.032;21.978;2023-09-07T18:23:37;38.55;;;21.75;;
37131;SDS011;23035;50.032;21.978;2023-09-07T18:28:42;41.80;;;20.90;;
37131;SDS011;23035;50.032;21.978;2023-09-07T18:38:51;48.65;;;22.63;;
37131;SDS011;23035;50.032;21.978;2023-09-07T18:43:57;39.47;;;20.23;;
37131;SDS011;23035;50.032;21.978;2023-09-07T18:54:05;33.38;;;16.83;;
37131;SDS011;23035;50.032;21.978;2023-09-07T18:59:11;33.72;;;17.35;;
37131;SDS011;23035;50.032;21.978;2023-09-07T19:04:16;34.70;;;18.75;;
37131;SDS011;23035;50.032;21.978;2023-09-07T19:09:20;31.85;;;17.13;;
37131;SDS011;23035;50.032;21.978;2023-09-07T19:14:27;31.92;;;18.65;;
37131;SDS011;23035;50.032;21.978;2023-09-07T19:19:31;47.58;;;25.50;;
37131;SDS011;23035;50.032;21.978;2023-09-07T19:24:35;58.55;;;29.00;;
37131;SDS011;23035;50.032;21.978;2023-09-07T19:29:41;73.45;;;35.75;;
37131;SDS011;23035;50.032;21.978;2023-09-07T19:34:45;71.43;;;33.22;;
37131;SDS011;23035;50.032;21.978;2023-09-07T19:39:49;58.05;;;30.55;;
37131;SDS011;23035;50.032;21.978;2023-09-07T19:44:54;65.03;;;34.78;;
37131;SDS011;23035;50.032;21.978;2023-09-07T19:49:58;64.90;;;34.33;;
37131;SDS011;23035;50.032;21.978;2023-09-07T19:55:02;76.47;;;37.92;;
37131;SDS011;23035;50.032;21.978;2023-09-07T20:00:09;57.13;;;29.90;;
37131;SDS011;23035;50.032;21.978;2023-09-07T20:05:14;69.20;;;36.90;;
37131;SDS011;23035;50.032;21.978;2023-09-07T20:10:18;60.45;;;31.13;;
37131;SDS011;23035;50.032;21.978;2023-09-07T20:15:27;51.95;;;26.73;;
37131;SDS011;23035;50.032;21.978;2023-09-07T20:20:31;48.97;;;25.27;;
37131;SDS011;23035;50.032;21.978;2023-09-07T20:25:35;49.92;;;25.35;;
37131;SDS011;23035;50.032;21.978;2023-09-07T20:30:40;52.80;;;26.02;;
37131;SDS011;23035;50.032;21.978;2023-09-07T20:35:44;42.13;;;23.45;;
37131;SDS011;23035;50.032;21.978;2023-09-07T20:40:47;44.47;;;23.42;;
37131;SDS011;23035;50.032;21.978;2023-09-07T20:45:53;41.05;;;22.67;;
37131;SDS011;23035;50.032;21.978;2023-09-07T20:50:57;40.83;;;22.50;;
37131;SDS011;23035;50.032;21.978;2023-09-07T20:56:01;44.15;;;23.17;;
37131;SDS011;23035;50.032;21.978;2023-09-07T21:01:07;45.60;;;23.00;;
37131;SDS011;23035;50.032;21.978;2023-09-07T21:06:11;46.17;;;22.00;;
37131;SDS011;23035;50.032;21.978;2023-09-07T21:11:15;45.53;;;21.58;;
37131;SDS011;23035;50.032;21.978;2023-09-07T21:16:20;41.10;;;21.85;;
37131;SDS011;23035;50.032;21.978;2023-09-07T21:21:25;41.58;;;22.38;;
37131;SDS011;23035;50.032;21.978;2023-09-07T21:26:29;37.20;;;22.17;;
37131;SDS011;23035;50.032;21.978;2023-09-07T21:31:34;40.50;;;20.98;;
37131;SDS011;23035;50.032;21.978;2023-09-07T21:36:38;41.53;;;20.77;;
37131;SDS011;23035;50.032;21.978;2023-09-07T21:41:46;38.13;;;21.17;;
37131;SDS011;23035;50.032;21.978;2023-09-07T21:46:53;37.83;;;21.30;;
37131;SDS011;23035;50.032;21.978;2023-09-07T21:51:57;37.22;;;21.33;;
37131;SDS011;23035;50.032;21.978;2023-09-07T21:57:01;36.40;;;20.13;;
37131;SDS011;23035;50.032;21.978;2023-09-07T22:02:08;39.03;;;19.45;;
37131;SDS011;23035;50.032;21.978;2023-09-07T22:07:12;34.70;;;18.98;;
37131;SDS011;23035;50.032;21.978;2023-09-07T22:12:16;29.08;;;17.08;;
37131;SDS011;23035;50.032;21.978;2023-09-07T22:17:21;34.42;;;17.33;;
37131;SDS011;23035;50.032;21.978;2023-09-07T22:22:25;37.15;;;20.33;;
37131;SDS011;23035;50.032;21.978;2023-09-07T22:27:30;34.88;;;19.73;;
37131;SDS011;23035;50.032;21.978;2023-09-07T22:32:36;32.67;;;19.02;;
37131;SDS011;23035;50.032;21.978;2023-09-07T22:42:44;33.55;;;17.98;;
37131;SDS011;23035;50.032;21.978;2023-09-07T22:47:50;30.20;;;18.92;;
37131;SDS011;23035;50.032;21.978;2023-09-07T22:52:53;28.85;;;18.00;;
37131;SDS011;23035;50.032;21.978;2023-09-07T22:57:57;27.05;;;16.35;;
37131;SDS011;23035;50.032;21.978;2023-09-07T23:03:03;29.80;;;16.52;;
37131;SDS011;23035;50.032;21.978;2023-09-07T23:08:07;28.83;;;16.70;;
37131;SDS011;23035;50.032;21.978;2023-09-07T23:13:12;29.97;;;16.47;;
37131;SDS011;23035;50.032;21.978;2023-09-07T23:18:20;31.80;;;16.90;;
37131;SDS011;23035;50.032;21.978;2023-09-07T23:23:24;28.75;;;15.57;;
37131;SDS011;23035;50.032;21.978;2023-09-07T23:28:28;26.90;;;15.52;;
37131;SDS011;23035;50.032;21.978;2023-09-07T23:33:34;26.83;;;15.88;;
37131;SDS011;23035;50.032;21.978;2023-09-07T23:38:38;26.52;;;16.30;;
37131;SDS011;23035;50.032;21.978;2023-09-07T23:43:43;21.23;;;15.00;;
37131;SDS011;23035;50.032;21.978;2023-09-07T23:48:49;28.23;;;16.20;;
37131;SDS011;23035;50.032;21.978;2023-09-07T23:53:53;28.60;;;14.75;;
37131;SDS011;23035;50.032;21.978;2023-09-07T23:58:58;29.77;;;15.85;;
